Time;durP1;ratioP1;P1;durP2;ratioP2;P2;SDS_P1;SDS_P2;PMS_P1;PMS_P2;Temp;Humidity;BMP_temperature;BMP_pressure;BME280_temperature;BME280_humidity;BME280_pressure;Samples;Min_cycle;Max_cycle;Signal;HPM_P1;HPM_P2
2022/11/30 00:00:35;;;;;;;6.90;2.33;;;;;;;9.22;100.00;100999.44;5035151;28;20030;-75
2022/11/30 00:03:01;;;;;;;12.85;2.55;;;;;;;9.24;100.00;101003.63;5002375;28;20053;-76
2022/11/30 00:05:26;;;;;;;7.68;2.33;;;;;;;9.25;100.00;100988.38;5002526;28;20038;-76
2022/11/30 00:07:55;;;;;;;11.60;2.80;;;;;;;9.31;100.00;101000.31;5002417;28;20029;-76
2022/11/30 00:10:21;;;;;;;5.25;2.20;;;;;;;9.27;100.00;100993.59;5034883;28;20096;-75
2022/11/30 00:12:48;;;;;;;5.25;1.80;;;;;;;9.20;100.00;100996.06;5002247;28;20116;-76
2022/11/30 00:15:16;;;;;;;9.23;2.80;;;;;;;9.18;100.00;100998.94;5002429;28;20155;-75
2022/11/30 00:17:45;;;;;;;6.55;2.80;;;;;;;9.14;100.00;101002.91;5018598;28;20151;-76
2022/11/30 00:20:13;;;;;;;10.85;2.60;;;;;;;9.02;100.00;100993.47;5034555;28;20030;-76
2022/11/30 00:22:38;;;;;;;5.05;2.55;;;;;;;9.00;100.00;100999.00;5034994;28;20039;-75
2022/11/30 00:25:04;;;;;;;10.30;2.40;;;;;;;8.96;100.00;100991.41;5034973;28;20037;-76
2022/11/30 00:27:33;;;;;;;9.93;1.67;;;;;;;9.01;100.00;100998.00;5018117;28;20549;-75
2022/11/30 00:30:00;;;;;;;7.90;2.40;;;;;;;9.08;100.00;101003.56;5002015;28;20022;-76
2022/11/30 00:32:26;;;;;;;7.70;2.78;;;;;;;9.07;100.00;101004.56;5001981;28;20037;-75
2022/11/30 00:34:52;;;;;;;8.18;3.13;;;;;;;9.05;100.00;100989.63;5018409;28;20041;-76
2022/11/30 00:37:18;;;;;;;7.43;2.03;;;;;;;9.07;100.00;101004.56;5001932;28;20110;-76
2022/11/30 00:39:44;;;;;;;4.60;2.50;;;;;;;9.11;100.00;101002.41;5001796;28;20499;-76
2022/11/30 00:42:09;;;;;;;11.55;2.97;;;;;;;9.10;100.00;101001.53;5001990;28;20068;-76
2022/11/30 00:44:35;;;;;;;6.28;1.95;;;;;;;9.10;100.00;100996.19;5034605;28;20029;-76
2022/11/30 00:47:01;;;;;;;3.25;1.60;;;;;;;9.16;100.00;100998.25;5018115;28;20530;-76
2022/11/30 00:49:26;;;;;;;8.52;1.50;;;;;;;9.18;100.00;100982.81;5034025;28;20036;-77
2022/11/30 00:51:52;;;;;;;6.45;2.00;;;;;;;9.25;100.00;100999.09;5017972;28;20124;-76
2022/11/30 00:54:18;;;;;;;7.13;2.20;;;;;;;9.22;100.00;101008.31;5001634;28;20133;-76
2022/11/30 00:56:44;;;;;;;5.72;2.17;;;;;;;9.17;100.00;100991.84;5001642;28;20040;-76
2022/11/30 00:59:09;;;;;;;8.23;2.05;;;;;;;9.16;100.00;100979.47;5001542;28;20037;-76
2022/11/30 01:01:35;;;;;;;8.98;2.20;;;;;;;9.19;100.00;101003.28;5017568;28;20025;-76
2022/11/30 01:04:01;;;;;;;10.90;2.53;;;;;;;9.14;100.00;100997.56;5017695;28;20056;-76
2022/11/30 01:06:27;;;;;;;5.82;1.73;;;;;;;9.17;100.00;100996.38;5017274;28;20033;-76
2022/11/30 01:08:53;;;;;;;5.70;1.58;;;;;;;9.12;100.00;100991.50;5001422;28;20068;-76
2022/11/30 01:11:27;;;;;;;6.32;1.75;;;;;;;9.16;100.00;101002.78;5001389;28;20472;-77
2022/11/30 01:13:53;;;;;;;4.63;2.35;;;;;;;9.12;100.00;100996.03;5001438;28;20060;-77
2022/11/30 01:16:23;;;;;;;97.32;87.93;;;;;;;9.06;100.00;100988.63;5033900;28;20036;-76
2022/11/30 01:18:49;;;;;;;7.85;1.95;;;;;;;9.03;100.00;101001.34;5017312;28;20032;-76
2022/11/30 01:21:17;;;;;;;4.25;1.73;;;;;;;9.05;100.00;100998.53;5000945;28;20025;-76
2022/11/30 01:23:43;;;;;;;6.63;1.65;;;;;;;9.03;100.00;100996.00;5017227;28;20036;-76
2022/11/30 01:26:10;;;;;;;9.15;2.40;;;;;;;9.02;100.00;100999.69;5001087;28;20040;-76
2022/11/30 01:28:36;;;;;;;6.82;1.95;;;;;;;9.00;100.00;101001.69;5001064;28;20124;-75
2022/11/30 01:31:07;;;;;;;3.35;1.40;;;;;;;9.06;100.00;100999.38;5000863;28;20041;-76
2022/11/30 01:33:32;;;;;;;5.50;2.10;;;;;;;9.03;100.00;100997.84;5016812;28;20032;-76
2022/11/30 01:36:04;;;;;;;3.83;1.63;;;;;;;8.92;100.00;100988.22;5033155;28;20037;-76
2022/11/30 01:38:44;;;;;;;8.23;1.70;;;;;;;8.95;100.00;101008.53;5033629;28;20103;-76
2022/11/30 01:41:12;;;;;;;5.70;1.38;;;;;;;8.83;100.00;100991.84;5000453;28;20025;-76
2022/11/30 01:43:48;;;;;;;4.07;1.63;;;;;;;8.69;100.00;100977.19;5017256;28;20044;-76
2022/11/30 01:46:23;;;;;;;6.20;2.05;;;;;;;8.87;100.00;101005.81;5000660;28;20086;-76
2022/11/30 01:49:11;;;;;;;4.97;1.35;;;;;;;8.84;100.00;101006.97;5032993;28;20160;-76
2022/11/30 01:51:50;;;;;;;6.25;1.65;;;;;;;8.76;100.00;100999.69;5049666;28;20033;-76
2022/11/30 01:54:20;;;;;;;4.18;1.33;;;;;;;8.78;100.00;101000.34;5016724;28;20109;-77
2022/11/30 01:56:55;;;;;;;4.38;1.88;;;;;;;8.83;100.00;101009.78;5016772;28;20033;-76
2022/11/30 01:59:23;;;;;;;4.93;1.73;;;;;;;8.81;100.00;100996.53;5033111;28;20135;-76
2022/11/30 02:01:50;;;;;;;4.32;2.17;;;;;;;8.84;100.00;101001.59;5000112;28;20033;-76
2022/11/30 02:04:27;;;;;;;2.38;1.60;;;;;;;8.86;100.00;101004.94;5016281;28;20510;-76
2022/11/30 02:06:55;;;;;;;5.80;2.00;;;;;;;8.84;100.00;101006.09;5016238;28;20391;-76
2022/11/30 02:09:21;;;;;;;6.88;1.77;;;;;;;8.85;100.00;101005.94;5016482;28;20029;-76
2022/11/30 02:11:47;;;;;;;9.05;1.58;;;;;;;8.92;100.00;101007.00;5032434;28;20025;-76
2022/11/30 02:14:50;;;;;;;4.43;1.48;;;;;;;8.95;100.00;101014.72;5032515;28;20037;-76
2022/11/30 02:17:27;;;;;;;5.03;1.60;;;;;;;8.71;100.00;100977.88;5032691;28;20052;-76
2022/11/30 02:20:22;;;;;;;7.60;1.60;;;;;;;8.98;100.00;101006.34;5000165;28;20034;-76
2022/11/30 02:23:15;;;;;;;7.45;1.38;;;;;;;9.01;100.00;101007.88;5032936;28;20042;-76
2022/11/30 02:25:40;;;;;;;;;;;;;;;9.03;100.00;101013.94;5032805;28;20033;-76
2022/11/30 02:28:21;;;;;;;3.88;1.30;;;;;;;8.85;100.00;100975.63;5032741;28;19963;-76
2022/11/30 02:30:48;;;;;;;4.15;1.15;;;;;;;9.10;100.00;101017.63;5033740;28;20418;-76
2022/11/30 02:33:17;;;;;;;2.58;1.17;;;;;;;9.10;100.00;101014.94;5015975;28;20029;-76
2022/11/30 02:35:45;;;;;;;4.55;1.20;;;;;;;9.13;100.00;101017.34;4999842;28;20470;-75
2022/11/30 02:38:12;;;;;;;5.20;1.70;;;;;;;9.15;100.00;101017.16;5016194;28;20053;-75
2022/11/30 02:40:37;;;;;;;7.82;1.60;;;;;;;9.14;100.00;101020.84;5048769;28;20108;-76
2022/11/30 02:43:05;;;;;;;4.15;1.20;;;;;;;9.14;100.00;101024.38;4999892;28;20116;-76
2022/11/30 02:45:43;;;;;;;3.13;1.30;;;;;;;9.13;100.00;101024.53;5032439;28;20026;-75
2022/11/30 02:48:10;;;;;;;5.55;1.20;;;;;;;9.08;100.00;101018.81;4999728;28;20045;-76
2022/11/30 02:50:48;;;;;;;2.88;1.17;;;;;;;9.12;100.00;101030.91;5015767;28;20040;-77
2022/11/30 02:53:17;;;;;;;4.65;1.27;;;;;;;9.03;100.00;101008.56;5032011;28;20026;-77
2022/11/30 02:55:42;;;;;;;3.22;0.82;;;;;;;9.15;100.00;101027.91;5016171;28;20099;-77
2022/11/30 02:58:08;;;;;;;6.57;1.23;;;;;;;9.17;100.00;101023.22;5015525;28;20460;-77
2022/11/30 03:00:33;;;;;;;7.07;1.27;;;;;;;9.24;100.00;101026.94;4999512;28;20049;-77
2022/11/30 03:02:59;;;;;;;3.47;1.00;;;;;;;9.22;100.00;101029.78;5031920;28;20164;-77
2022/11/30 03:05:25;;;;;;;3.78;1.48;;;;;;;9.27;100.00;101033.84;4999641;28;20045;-77
2022/11/30 03:07:50;;;;;;;3.70;1.27;;;;;;;9.29;100.00;101027.31;5032084;28;20037;-77
2022/11/30 03:10:16;;;;;;;3.22;1.10;;;;;;;9.31;100.00;101033.34;4999607;28;20038;-78
2022/11/30 03:12:42;;;;;;;3.67;1.02;;;;;;;9.32;100.00;101029.66;5015966;28;20040;-77
2022/11/30 03:15:08;;;;;;;2.67;0.85;;;;;;;9.36;100.00;101032.84;4999580;28;20395;-77
2022/11/30 03:17:33;;;;;;;3.65;1.52;;;;;;;9.36;100.00;101038.22;4999438;28;20414;-77
2022/11/30 03:19:59;;;;;;;7.80;1.10;;;;;;;9.38;100.00;101033.53;5015674;28;20482;-77
2022/11/30 03:22:25;;;;;;;3.33;1.05;;;;;;;9.39;100.00;101040.59;5016159;28;20087;-77
2022/11/30 03:24:51;;;;;;;4.22;1.17;;;;;;;9.35;100.00;101042.75;5035605;28;20029;-75
2022/11/30 03:27:19;;;;;;;7.05;1.33;;;;;;;9.40;100.00;101047.66;5019334;28;20367;-77
2022/11/30 03:29:45;;;;;;;4.90;1.15;;;;;;;9.39;100.00;101046.81;5035998;28;20033;-77
2022/11/30 03:32:11;;;;;;;2.92;0.88;;;;;;;9.41;100.00;101043.94;5019428;28;20114;-77
2022/11/30 03:34:36;;;;;;;5.90;1.33;;;;;;;9.41;100.00;101042.09;5002649;28;20068;-76
2022/11/30 03:37:02;;;;;;;6.95;1.50;;;;;;;9.33;100.00;101038.56;5035799;28;20071;-77
2022/11/30 03:39:28;;;;;;;5.80;1.30;;;;;;;9.41;100.00;101052.00;5002942;28;20037;-76
2022/11/30 03:41:53;;;;;;;4.43;1.27;;;;;;;9.41;100.00;101049.31;5035320;28;20475;-78
2022/11/30 03:44:19;;;;;;;2.92;1.08;;;;;;;9.41;100.00;101052.84;5019178;28;20033;-77
2022/11/30 03:46:45;;;;;;;12.45;1.70;;;;;;;9.44;100.00;101057.03;5019157;28;20033;-76
2022/11/30 03:49:10;;;;;;;3.00;0.90;;;;;;;9.49;100.00;101060.09;5035610;28;20045;-76
2022/11/30 03:51:36;;;;;;;7.03;1.02;;;;;;;9.49;100.00;101060.09;5035470;28;20075;-76
2022/11/30 03:54:02;;;;;;;2.38;1.13;;;;;;;9.46;100.00;101055.88;5051696;28;20368;-76
2022/11/30 03:56:27;;;;;;;1.55;0.80;;;;;;;9.46;100.00;101065.78;5002808;28;20033;-76
2022/11/30 03:58:53;;;;;;;3.28;0.98;;;;;;;9.46;100.00;101060.41;5035553;28;20124;-76
2022/11/30 04:01:23;;;;;;;4.25;1.60;;;;;;;9.43;100.00;101066.94;5002370;28;20490;-76
2022/11/30 04:03:50;;;;;;;4.32;0.98;;;;;;;9.46;100.00;101066.63;5035723;28;20034;-76
2022/11/30 04:06:17;;;;;;;8.60;2.78;;;;;;;9.50;100.00;101071.66;5051907;28;20053;-76
2022/11/30 04:08:43;;;;;;;6.80;1.40;;;;;;;9.57;100.00;101078.09;5002415;28;20038;-76
2022/11/30 04:11:10;;;;;;;4.00;1.08;;;;;;;9.51;100.00;101063.47;5051251;28;20083;-76
2022/11/30 04:13:37;;;;;;;2.58;1.05;;;;;;;9.55;100.00;101072.88;5034975;28;20037;-76
2022/11/30 04:16:03;;;;;;;4.68;1.75;;;;;;;9.52;100.00;101065.13;5018202;28;20116;-76
2022/11/30 04:18:31;;;;;;;5.15;1.38;;;;;;;9.59;100.00;101070.72;5018266;28;20033;-76
2022/11/30 04:20:57;;;;;;;7.05;1.30;;;;;;;9.62;100.00;101087.31;5002156;28;20475;-76
2022/11/30 04:23:24;;;;;;;3.92;1.33;;;;;;;9.59;100.00;101076.09;5018107;28;20463;-76
2022/11/30 04:25:50;;;;;;;3.67;1.00;;;;;;;9.61;100.00;101080.28;5018238;28;20390;-76
2022/11/30 04:28:16;;;;;;;5.50;1.58;;;;;;;9.61;100.00;101077.59;5001985;28;20060;-76
2022/11/30 04:30:44;;;;;;;3.30;1.08;;;;;;;9.63;100.00;101085.47;5002135;28;20541;-76
2022/11/30 04:33:10;;;;;;;3.00;1.25;;;;;;;9.65;100.00;101086.16;5034354;28;20486;-76
2022/11/30 04:35:41;;;;;;;6.63;1.23;;;;;;;9.63;100.00;101088.16;5002080;28;20025;-76
2022/11/30 04:38:07;;;;;;;5.55;1.10;;;;;;;9.60;100.00;101083.94;5001831;28;20383;-76
2022/11/30 04:40:32;;;;;;;4.45;1.40;;;;;;;9.60;100.00;101093.84;5034257;28;20037;-76
2022/11/30 04:42:58;;;;;;;6.93;1.35;;;;;;;9.56;100.00;101089.84;5034716;28;20139;-76
2022/11/30 04:45:24;;;;;;;7.18;1.20;;;;;;;9.59;100.00;101095.72;5018157;28;20037;-76
2022/11/30 04:47:49;;;;;;;2.95;0.95;;;;;;;9.61;100.00;101096.41;5034658;28;20103;-76
2022/11/30 04:50:15;;;;;;;5.00;1.13;;;;;;;9.63;100.00;101094.41;5018034;28;20036;-76
2022/11/30 04:52:40;;;;;;;4.75;1.30;;;;;;;9.61;100.00;101096.41;5018055;28;20033;-76
2022/11/30 04:55:06;;;;;;;7.70;1.20;;;;;;;9.54;100.00;101081.94;5017450;28;20034;-76
2022/11/30 04:57:32;;;;;;;4.90;1.23;;;;;;;9.59;100.00;101094.88;5001662;28;20045;-76
2022/11/30 04:59:58;;;;;;;3.33;1.30;;;;;;;9.59;100.00;101094.88;5017782;28;20034;-76
2022/11/30 05:02:23;;;;;;;5.30;1.30;;;;;;;9.61;100.00;101100.94;5001320;28;20033;-76
2022/11/30 05:04:49;;;;;;;5.57;1.73;;;;;;;9.63;100.00;101099.78;5017584;28;20383;-76
2022/11/30 05:07:15;;;;;;;4.90;1.42;;;;;;;9.67;100.00;101108.31;5017811;28;20049;-76
2022/11/30 05:09:40;;;;;;;6.38;1.85;;;;;;;9.67;100.00;101102.97;5017727;28;20033;-76
2022/11/30 05:12:06;;;;;;;5.70;1.20;;;;;;;9.69;100.00;101101.78;5033720;28;20033;-76
2022/11/30 05:14:32;;;;;;;6.40;1.10;;;;;;;9.60;100.00;101089.31;5050187;28;20029;-76
2022/11/30 05:16:58;;;;;;;3.95;1.70;;;;;;;9.68;100.00;101101.94;5017537;28;20118;-76
2022/11/30 05:19:24;;;;;;;6.93;1.40;;;;;;;9.71;100.00;101100.78;5001170;28;20064;-76
2022/11/30 05:21:49;;;;;;;1.63;0.90;;;;;;;9.68;100.00;101102.81;5033635;28;20029;-76
2022/11/30 05:24:16;;;;;;;5.13;1.15;;;;;;;9.69;100.00;101106.34;5001132;28;20103;-77
2022/11/30 05:26:41;;;;;;;2.08;1.02;;;;;;;9.60;100.00;101089.31;5033832;28;20022;-76
2022/11/30 05:29:07;;;;;;;2.95;0.88;;;;;;;9.69;100.00;101107.16;5017385;28;20038;-76
2022/11/30 05:31:33;;;;;;;3.88;1.30;;;;;;;9.64;100.00;101100.59;5033709;28;20120;-77
2022/11/30 05:33:59;;;;;;;4.90;1.08;;;;;;;9.67;100.00;101108.31;5033432;28;20039;-76
2022/11/30 05:36:24;;;;;;;4.75;0.98;;;;;;;9.69;100.00;101106.34;5016811;28;20034;-76
2022/11/30 05:38:50;;;;;;;5.13;1.02;;;;;;;9.61;100.00;101099.09;5033647;28;20075;-76
2022/11/30 05:41:15;;;;;;;2.28;0.98;;;;;;;9.65;100.00;101105.78;5016700;28;20490;-76
2022/11/30 05:43:41;;;;;;;1.48;0.80;;;;;;;9.65;100.00;101108.47;5033633;28;20455;-76
2022/11/30 05:46:08;;;;;;;3.30;0.95;;;;;;;9.58;100.00;101094.03;5016296;28;20472;-76
2022/11/30 05:48:34;;;;;;;2.25;0.90;;;;;;;9.67;100.00;101114.53;5000335;28;20072;-76
2022/11/30 05:51:19;;;;;;;3.78;1.30;;;;;;;9.65;100.00;101107.66;5000673;28;20036;-76
2022/11/30 05:53:45;;;;;;;4.13;0.90;;;;;;;9.71;100.00;101116.88;5033396;28;20475;-76
2022/11/30 05:56:14;;;;;;;5.50;1.20;;;;;;;9.72;100.00;101110.53;5000565;28;20533;-77
2022/11/30 05:58:40;;;;;;;4.50;1.23;;;;;;;9.78;100.00;101109.88;5016845;28;20075;-76
2022/11/30 06:01:06;;;;;;;3.65;1.38;;;;;;;9.80;100.00;101102.50;5000255;28;20044;-77
2022/11/30 06:03:33;;;;;;;2.70;0.82;;;;;;;9.81;100.00;101110.38;5032649;28;20033;-76
2022/11/30 06:05:59;;;;;;;3.38;0.90;;;;;;;9.80;100.00;101110.56;5016419;28;20116;-76
2022/11/30 06:08:26;;;;;;;2.65;0.90;;;;;;;9.71;100.00;101100.78;5000352;28;20042;-76
2022/11/30 06:10:52;;;;;;;5.20;1.17;;;;;;;9.82;100.00;101116.63;5033029;28;20123;-76
2022/11/30 06:13:17;;;;;;;2.28;1.00;;;;;;;9.84;100.00;101109.22;5033144;28;20037;-76
2022/11/30 06:15:43;;;;;;;4.45;0.90;;;;;;;9.84;100.00;101115.47;5032879;28;20033;-76
2022/11/30 06:18:12;;;;;;;4.20;1.15;;;;;;;9.88;100.00;101115.97;4999969;28;20471;-77
2022/11/30 06:20:38;;;;;;;2.88;1.48;;;;;;;9.89;100.00;101115.78;5032791;28;20033;-76
2022/11/30 06:23:03;;;;;;;1.48;1.00;;;;;;;9.88;100.00;101119.50;5000037;28;20036;-76
2022/11/30 06:25:29;;;;;;;5.53;1.25;;;;;;;9.89;100.00;101120.31;5016398;28;20030;-76
2022/11/30 06:27:55;;;;;;;1.75;0.80;;;;;;;9.87;100.00;101117.81;5016230;28;20025;-76
2022/11/30 06:30:20;;;;;;;2.70;1.00;;;;;;;9.91;100.00;101121.00;5032719;28;20048;-76
2022/11/30 06:32:48;;;;;;;1.88;0.80;;;;;;;9.88;100.00;101115.97;5015859;28;20059;-76
2022/11/30 06:35:14;;;;;;;1.05;0.73;;;;;;;9.87;100.00;101116.94;4999935;28;20034;-76
2022/11/30 06:38:33;;;;;;;3.20;1.05;;;;;;;9.89;100.00;101125.69;4999951;28;20053;-76
2022/11/30 06:41:07;;;;;;;3.10;1.20;;;;;;;9.90;100.00;101122.03;5014164;28;20044;-76
2022/11/30 06:43:37;;;;;;;1.10;0.82;;;;;;;9.90;100.00;101122.03;5032509;28;20041;-76
2022/11/30 06:46:04;;;;;;;2.45;0.93;;;;;;;9.89;100.00;101118.47;5016131;28;20037;-78
2022/11/30 06:48:29;;;;;;;2.17;0.93;;;;;;;9.88;100.00;101119.50;4999921;28;20041;-75
2022/11/30 06:50:55;;;;;;;4.47;0.88;;;;;;;9.83;100.00;101113.75;4999828;28;20378;-76
2022/11/30 06:53:21;;;;;;;4.15;0.85;;;;;;;9.81;100.00;101115.75;5032492;28;20033;-76
2022/11/30 06:55:46;;;;;;;4.22;1.25;;;;;;;9.83;100.00;101123.66;5032157;28;20136;-76
2022/11/30 06:58:12;;;;;;;2.17;1.17;;;;;;;9.82;100.00;101120.16;5003241;28;20112;-76
2022/11/30 07:00:38;;;;;;;1.90;0.98;;;;;;;9.78;100.00;101116.09;5036466;28;20535;-78
2022/11/30 07:03:04;;;;;;;2.35;1.27;;;;;;;9.81;100.00;101122.97;5003837;28;20039;-75
2022/11/30 07:05:33;;;;;;;3.47;0.90;;;;;;;9.83;100.00;101123.66;5003740;28;20486;-77
2022/11/30 07:07:59;;;;;;;1.35;0.93;;;;;;;9.83;100.00;101126.34;5019856;28;20105;-77
2022/11/30 07:10:25;;;;;;;2.80;1.50;;;;;;;9.79;100.00;101127.66;5003730;28;20390;-77
2022/11/30 07:12:54;;;;;;;2.40;1.20;;;;;;;9.80;100.00;101135.56;5003547;28;20547;-77
2022/11/30 07:15:20;;;;;;;0.80;0.75;;;;;;;9.84;100.00;101139.63;5036148;28;20490;-77
2022/11/30 07:17:46;;;;;;;4.72;1.33;;;;;;;9.76;100.00;101131.50;5035850;28;20033;-78
2022/11/30 07:20:11;;;;;;;2.53;0.82;;;;;;;9.84;100.00;101155.75;5036153;28;20037;-77
2022/11/30 07:22:37;;;;;;;2.25;0.95;;;;;;;9.87;100.00;101162.63;5003358;28;20039;-75
2022/11/30 07:27:47;;;;;;;1.25;0.90;;;;;;;9.84;100.00;101166.50;5036033;28;20478;-77
2022/11/30 07:30:13;;;;;;;3.05;1.23;;;;;;;9.84;100.00;101166.50;5003079;28;20048;-75
2022/11/30 07:32:39;;;;;;;3.05;1.10;;;;;;;9.87;100.00;101181.41;5035546;28;20057;-75
2022/11/30 07:35:05;;;;;;;2.55;1.27;;;;;;;9.87;100.00;101176.91;5003113;28;20038;-76
2022/11/30 07:37:30;;;;;;;1.83;1.10;;;;;;;9.92;100.00;101184.47;5019366;28;20065;-75
2022/11/30 07:39:56;;;;;;;3.55;1.10;;;;;;;9.91;100.00;101185.47;5035502;28;20425;-75
2022/11/30 07:42:22;;;;;;;1.80;0.95;;;;;;;9.87;100.00;101187.66;5019186;28;20034;-75
2022/11/30 07:44:48;;;;;;;2.45;1.23;;;;;;;9.80;100.00;101181.22;5035916;28;20087;-75
2022/11/30 07:47:15;;;;;;;2.40;1.58;;;;;;;9.87;100.00;101201.09;5035322;28;20029;-76
2022/11/30 07:49:41;;;;;;;13.48;5.45;;;;;;;9.85;100.00;101202.25;5019062;28;20037;-79
2022/11/30 07:52:07;;;;;;;12.07;5.38;;;;;;;9.83;100.00;101201.56;5002579;28;20471;-79
2022/11/30 07:54:33;;;;;;;5.85;2.47;;;;;;;9.82;100.00;101208.78;5035290;28;20037;-79
2022/11/30 07:56:58;;;;;;;6.90;3.45;;;;;;;9.73;100.00;101207.03;5018693;28;20021;-79
2022/11/30 07:59:24;;;;;;;2.20;1.30;;;;;;;9.75;100.00;101217.63;5035124;28;20075;-79
2022/11/30 08:01:49;;;;;;;3.35;2.15;;;;;;;9.74;100.00;101223.97;5018806;28;20032;-79
2022/11/30 08:04:15;;;;;;;5.30;2.20;;;;;;;9.58;100.00;101214.84;5035002;28;20394;-79
2022/11/30 08:06:41;;;;;;;4.70;3.33;;;;;;;9.67;100.00;101230.00;5051989;28;20041;-79
2022/11/30 08:09:09;;;;;;;6.03;2.95;;;;;;;9.63;100.00;101228.66;5034463;28;20029;-79
2022/11/30 08:11:35;;;;;;;24.48;10.40;;;;;;;9.64;100.00;101229.47;5051619;28;20086;-79
2022/11/30 08:14:01;;;;;;;14.70;6.82;;;;;;;9.60;100.00;101228.09;5035040;28;20029;-79
2022/11/30 08:16:28;;;;;;;15.82;7.20;;;;;;;9.65;100.00;101247.25;5018528;28;20037;-79
2022/11/30 08:18:57;;;;;;;13.25;5.78;;;;;;;9.54;100.00;101228.75;5034565;28;20426;-79
2022/11/30 08:21:23;;;;;;;3.72;2.28;;;;;;;9.60;100.00;101234.31;5018307;28;20033;-79
2022/11/30 08:23:54;;;;;;;7.60;3.60;;;;;;;9.72;100.00;101255.53;5034812;28;20037;-79
2022/11/30 08:26:25;;;;;;;2.35;1.58;;;;;;;9.76;100.00;101249.69;5018554;28;20037;-80
2022/11/30 08:28:51;;;;;;;2.17;1.17;;;;;;;9.74;100.00;101257.06;5034802;28;20068;-79
2022/11/30 08:31:26;;;;;;;1.48;1.05;;;;;;;9.75;100.00;101257.91;5034696;28;20025;-79
2022/11/30 08:33:57;;;;;;;1.25;1.10;;;;;;;9.79;100.00;101267.31;5035093;28;20464;-80
2022/11/30 08:36:24;;;;;;;3.40;1.85;;;;;;;9.85;100.00;101269.38;5035288;28;20041;-80
2022/11/30 08:38:49;;;;;;;1.60;1.02;;;;;;;9.94;100.00;101273.78;5002533;28;20141;-79
2022/11/30 08:41:20;;;;;;;1.52;0.82;;;;;;;10.00;100.00;101278.56;5036099;28;20064;-80
2022/11/30 08:43:46;;;;;;;2.80;1.83;;;;;;;10.08;100.00;101281.28;5002482;28;20038;-79
2022/11/30 08:46:13;;;;;;;1.42;1.08;;;;;;;10.12;100.00;101293.38;5034124;28;20120;-79
2022/11/30 08:48:39;;;;;;;0.73;0.73;;;;;;;10.19;100.00;101295.41;5034191;28;20502;-79
2022/11/30 08:51:08;;;;;;;2.17;1.02;;;;;;;10.21;100.00;101280.81;5034300;28;20022;-80
2022/11/30 08:53:33;;;;;;;2.53;1.27;;;;;;;10.18;100.00;101283.00;5050805;28;20033;-79
2022/11/30 08:56:02;;;;;;;5.25;1.95;;;;;;;10.31;100.00;101292.31;5034404;28;20431;-79
2022/11/30 08:58:33;;;;;;;2.17;1.05;;;;;;;10.33;100.00;101298.38;5034501;28;20029;-79
2022/11/30 09:01:06;;;;;;;0.88;0.60;;;;;;;10.22;100.00;101281.69;5001571;28;20037;-79
2022/11/30 09:03:32;;;;;;;1.48;0.80;;;;;;;10.45;100.00;101311.53;5034294;28;20029;-79
2022/11/30 09:06:12;;;;;;;4.78;1.17;;;;;;;10.51;100.00;101319.81;5017660;28;20340;-79
2022/11/30 09:08:39;;;;;;;2.00;0.98;;;;;;;10.57;100.00;101323.69;5017295;28;20391;-79
2022/11/30 09:11:21;;;;;;;2.13;1.25;;;;;;;10.55;100.00;101320.31;5033906;28;20455;-79
2022/11/30 09:13:47;;;;;;;1.35;0.80;;;;;;;10.67;100.00;101339.72;5017627;28;20041;-79
2022/11/30 09:16:16;;;;;;;2.38;1.27;;;;;;;10.60;100.00;101320.69;5000731;28;20438;-79
2022/11/30 09:18:42;;;;;;;3.40;1.42;;;;;;;10.74;100.00;101340.72;5001164;28;20037;-79
2022/11/30 09:21:10;;;;;;;4.03;1.83;;;;;;;10.79;100.00;101338.41;5032576;28;20061;-79
2022/11/30 09:23:36;;;;;;;3.75;1.85;;;;;;;10.55;100.00;101296.97;5017387;28;20033;-80
2022/11/30 09:26:08;;;;;;;4.13;1.90;;;;;;;10.90;100.00;101351.56;5033440;28;20228;-79
2022/11/30 09:28:34;;;;;;;4.07;1.30;;;;;;;10.91;100.00;101338.94;5033852;28;20048;-79
2022/11/30 09:31:05;;;;;;;4.63;2.78;;;;;;;10.94;100.00;101344.00;5033185;28;20048;-79
2022/11/30 09:33:32;;;;;;;3.85;2.05;;;;;;;11.04;100.00;101355.47;5033647;28;20064;-79
2022/11/30 09:36:06;;;;;;;3.55;1.92;;;;;;;11.08;100.00;101347.91;5016990;28;20036;-79
2022/11/30 09:38:31;;;;;;;8.57;5.85;;;;;;;11.06;100.00;101356.16;5033623;28;20041;-79
2022/11/30 09:41:00;;;;;;;8.82;4.85;;;;;;;11.18;100.00;101359.38;5033227;28;20029;-79
2022/11/30 09:43:46;;;;;;;13.20;6.25;;;;;;;11.20;100.00;101360.03;5033255;28;20064;-79
2022/11/30 09:46:11;;;;;;;5.55;4.60;;;;;;;11.21;100.00;101362.56;5032874;28;20033;-79
2022/11/30 09:49:01;;;;;;;4.32;3.65;;;;;;;11.22;100.00;101363.41;5000617;28;20052;-79
2022/11/30 09:51:31;;;;;;;10.38;7.63;;;;;;;11.20;100.00;101354.66;5034380;28;20087;-79
2022/11/30 09:54:09;;;;;;;8.18;4.35;;;;;;;11.19;100.00;101358.34;5033014;28;20029;-79
2022/11/30 09:56:38;;;;;;;5.93;3.70;;;;;;;11.23;100.00;101360.53;5033233;28;20106;-79
2022/11/30 09:59:15;;;;;;;3.50;2.58;;;;;;;11.15;100.00;101336.31;5033143;28;20049;-80
2022/11/30 10:01:43;;;;;;;8.18;2.80;;;;;;;11.25;100.00;101344.25;5032910;28;20083;-80
2022/11/30 10:04:17;;;;;;;3.88;2.22;;;;;;;11.50;100.00;101363.13;5033159;28;20041;-79
2022/11/30 10:06:55;;;;;;;7.50;4.68;;;;;;;11.64;100.00;101367.81;5032950;28;20033;-79
2022/11/30 10:09:29;;;;;;;4.28;2.20;;;;;;;11.74;100.00;101365.81;5034032;28;20033;-80
2022/11/30 10:12:00;;;;;;;;;;;;;;;11.94;100.00;101376.28;5034419;28;20063;-80
2022/11/30 10:14:41;;;;;;;6.68;3.55;;;;;;;12.05;100.00;101373.25;5032904;28;19913;-79
2022/11/30 10:17:22;;;;;;;4.80;3.65;;;;;;;12.12;100.00;101371.56;5032462;28;20494;-80
2022/11/30 10:20:06;;;;;;;6.20;4.30;;;;;;;12.25;100.00;101379.97;5032474;28;20108;-80
2022/11/30 10:22:52;;;;;;;8.68;4.28;;;;;;;12.36;100.00;101372.50;5032882;28;20033;-80
2022/11/30 10:25:56;;;;;;;2.75;1.75;;;;;;;12.42;100.00;101378.06;5032871;28;20072;-80
2022/11/30 10:28:25;;;;;;;2.60;1.27;;;;;;;12.50;100.00;101388.81;5020845;28;20423;-80
2022/11/30 10:30:50;;;;;;;2.55;1.23;;;;;;;12.62;100.00;101388.44;5032520;28;20029;-80
2022/11/30 10:33:18;;;;;;;3.45;2.30;;;;;;;12.68;100.00;101394.00;5032094;28;20029;-80
2022/11/30 10:35:55;;;;;;;2.20;1.50;;;;;;;12.68;100.00;101391.28;5048911;28;20459;-80
2022/11/30 10:38:26;;;;;;;1.92;0.77;;;;;;;12.59;100.00;101394.19;5016505;28;20033;-80
2022/11/30 10:40:56;;;;;;;0.90;0.70;;;;;;;12.59;100.00;101405.81;5032358;28;20118;-81
2022/11/30 10:43:37;;;;;;;1.40;1.02;;;;;;;12.47;100.00;101393.72;5016151;28;20128;-80
2022/11/30 10:46:03;;;;;;;1.30;1.02;;;;;;;12.45;100.00;101407.38;5016346;28;20041;-80
2022/11/30 10:48:53;;;;;;;1.15;0.88;;;;;;;12.41;100.00;101394.41;5016173;28;20143;-80
2022/11/30 10:51:19;;;;;;;1.10;0.90;;;;;;;12.45;100.00;101401.13;5015821;28;20033;-80
2022/11/30 10:53:47;;;;;;;1.70;0.77;;;;;;;12.43;100.00;101400.47;4999160;28;20471;-80
2022/11/30 10:56:14;;;;;;;1.67;0.80;;;;;;;12.39;100.00;101391.06;5032941;28;20160;-81
2022/11/30 10:58:59;;;;;;;3.83;1.55;;;;;;;12.19;100.00;101348.28;5032068;28;20052;-81
2022/11/30 11:01:36;;;;;;;3.20;1.38;;;;;;;12.38;100.00;101378.56;5031846;28;20064;-80
2022/11/30 11:04:19;;;;;;;5.50;3.08;;;;;;;12.43;100.00;101398.59;5031999;28;20490;-80
2022/11/30 11:06:56;;;;;;;3.47;1.40;;;;;;;12.40;100.00;101392.72;5032263;28;20022;-80
2022/11/30 11:09:48;;;;;;;2.25;1.40;;;;;;;12.41;100.00;101394.41;5032923;28;20033;-80
2022/11/30 11:12:17;;;;;;;1.65;1.13;;;;;;;12.38;100.00;101389.34;5031871;28;20060;-81
2022/11/30 11:14:43;;;;;;;2.70;1.35;;;;;;;12.40;100.00;101392.72;5032031;28;20041;-80
2022/11/30 11:17:18;;;;;;;1.70;0.98;;;;;;;12.40;100.00;101387.31;4999464;28;20086;-80
2022/11/30 11:19:46;;;;;;;2.05;1.60;;;;;;;12.38;100.00;101387.50;5032000;28;20029;-80
2022/11/30 11:22:26;;;;;;;3.85;1.95;;;;;;;12.40;100.00;101385.47;5031839;28;20029;-80
2022/11/30 11:25:09;;;;;;;3.22;1.70;;;;;;;12.41;100.00;101381.78;5031926;28;20029;-80
2022/11/30 11:27:35;;;;;;;2.20;1.30;;;;;;;12.45;100.00;101385.78;5032086;28;20384;-78
2022/11/30 11:30:07;;;;;;;0.70;0.70;;;;;;;12.49;100.00;101384.44;5032131;28;20033;-78
2022/11/30 11:32:34;;;;;;;1.15;0.90;;;;;;;12.52;100.00;101378.69;5048560;28;20483;-78
2022/11/30 11:35:00;;;;;;;1.20;0.98;;;;;;;12.51;100.00;101384.25;5031601;28;20390;-78